Time;durP1;ratioP1;P1;durP2;ratioP2;P2;SDS_P1;SDS_P2;PMS_P1;PMS_P2;Temp;Humidity;BMP_temperature;BMP_pressure;BME280_temperature;BME280_humidity;BME280_pressure;Samples;Min_cycle;Max_cycle;Signal;HPM_P1;HPM_P2
2021/11/08 00:02:22;;;;;;;;;24.50;24.00;;;;;8.31;67.20;101986.00;4961898;28;45276;-96
2021/11/08 00:04:48;;;;;;;;;29.75;27.75;;;;;8.30;67.30;101991.16;4957187;28;45550;-96
2021/11/08 00:07:15;;;;;;;;;31.75;27.00;;;;;8.27;67.41;101999.66;4973326;28;45255;-96
2021/11/08 00:09:43;;;;;;;;;32.25;25.25;;;;;8.26;67.69;101990.91;4953142;28;47409;-96
2021/11/08 00:12:10;;;;;;;;;28.25;24.75;;;;;8.29;67.80;101987.63;4968993;28;45181;-96
2021/11/08 00:14:36;;;;;;;;;28.75;25.50;;;;;8.31;67.67;101999.09;4952631;28;45471;-96
2021/11/08 00:17:13;;;;;;;;;26.50;23.50;;;;;8.23;67.71;101990.66;4936365;28;45300;-96
2021/11/08 00:22:25;;;;;;;;;23.00;23.00;;;;;8.17;68.10;101979.72;4972296;28;45302;-96
2021/11/08 00:24:51;;;;;;;;;31.25;23.50;;;;;8.15;67.95;101986.56;4950857;28;45264;-96
2021/11/08 00:27:17;;;;;;;;;31.75;25.00;;;;;8.12;68.20;101996.78;4975399;28;45326;-96
2021/11/08 00:29:42;;;;;;;;;28.25;24.00;;;;;8.19;67.89;101992.94;4967120;28;47531;-96
2021/11/08 00:32:08;;;;;;;;;25.50;23.25;;;;;8.11;68.29;101982.81;4991691;28;45072;-96
2021/11/08 00:34:34;;;;;;;;;25.00;23.25;;;;;8.10;68.12;101986.22;4975567;28;44756;-96
2021/11/08 00:36:59;;;;;;;;;29.50;25.75;;;;;8.19;67.94;102003.41;4983668;28;44856;-96
2021/11/08 00:39:25;;;;;;;;;26.25;18.50;;;;;8.12;68.21;101989.84;4983013;28;47081;-94
2021/11/08 00:41:51;;;;;;;;;24.75;24.00;;;;;8.17;68.33;102000.66;4982636;28;45132;-93
2021/11/08 00:44:17;;;;;;;;;27.25;24.00;;;;;8.11;68.30;101995.91;4981781;28;44692;-94
2021/11/08 00:46:42;;;;;;;;;27.50;25.00;;;;;8.07;68.26;101987.69;4962809;28;44862;-94
2021/11/08 00:49:10;;;;;;;;;24.75;22.00;;;;;8.07;68.53;101990.28;4950867;28;55955;-94
2021/11/08 00:51:37;;;;;;;;;27.75;25.75;;;;;8.04;68.34;101980.53;4980093;28;45204;-94
2021/11/08 00:54:04;;;;;;;;;25.50;23.25;;;;;8.05;68.66;101984.97;4972503;28;45062;-95
2021/11/08 00:56:30;;;;;;;;;24.75;23.50;;;;;8.01;68.43;101989.06;4967997;28;45205;-95
2021/11/08 00:58:55;;;;;;;;;33.00;24.25;;;;;8.04;68.80;101993.63;4971990;28;47266;-95
2021/11/08 01:01:22;;;;;;;;;31.50;23.00;;;;;8.05;68.53;101998.03;4969878;28;44933;-95
2021/11/08 01:03:47;;;;;;;;;22.25;21.25;;;;;8.04;68.78;101998.84;4963626;28;45266;-96
2021/11/08 01:06:14;;;;;;;;;28.25;24.00;;;;;7.99;68.19;101994.97;4962053;28;45431;-96
2021/11/08 01:08:40;;;;;;;;;28.50;21.50;;;;;8.05;68.70;102027.72;4959993;28;47136;-96
2021/11/08 01:11:06;;;;;;;;;26.25;21.00;;;;;7.93;68.55;102000.63;4958688;28;45725;-96
2021/11/08 01:13:31;;;;;;;;;24.50;20.25;;;;;8.03;68.76;102020.53;4954370;28;45363;-96
2021/11/08 01:15:57;;;;;;;;;23.50;19.50;;;;;7.98;68.81;102022.81;4957693;28;45440;-96
2021/11/08 01:18:23;;;;;;;;;26.75;21.25;;;;;8.00;68.63;102031.69;4962362;28;47342;-96
2021/11/08 01:20:49;;;;;;;;;24.50;19.25;;;;;7.93;68.96;102019.84;4965878;28;45242;-95
2021/11/08 01:23:16;;;;;;;;;22.00;19.00;;;;;7.92;68.83;102006.63;4968295;28;44649;-96
2021/11/08 01:25:41;;;;;;;;;25.75;23.25;;;;;7.85;69.29;101991.28;4965561;28;45521;-96
2021/11/08 01:28:08;;;;;;;;;21.75;17.25;;;;;7.87;68.61;101990.59;4964629;28;47404;-96
2021/11/08 01:30:34;;;;;;;;;24.75;19.50;;;;;7.94;69.01;102010.28;4961095;28;45332;-96
2021/11/08 01:33:05;;;;;;;;;18.00;17.50;;;;;7.90;68.81;102000.38;4972532;28;45422;-96
2021/11/08 01:35:45;;;;;;;;;26.25;25.25;;;;;7.83;68.98;101996.41;4956595;28;45621;-96
2021/11/08 01:38:22;;;;;;;;;30.75;22.50;;;;;7.82;69.03;101999.81;4958092;28;47381;-96
2021/11/08 01:40:50;;;;;;;;;27.50;21.75;;;;;7.88;69.19;102010.75;4953225;28;45406;-96
2021/11/08 01:43:15;;;;;;;;;26.50;21.50;;;;;7.76;69.21;101992.38;4949062;28;45373;-96
2021/11/08 01:45:40;;;;;;;;;20.75;18.00;;;;;7.83;69.21;101999.91;4961686;28;45837;-96
2021/11/08 01:48:06;;;;;;;;;31.00;22.25;;;;;7.74;69.27;101985.22;4956331;28;48110;-96
2021/11/08 01:50:33;;;;;;;;;25.50;21.25;;;;;7.71;69.08;101984.19;4957312;28;45516;-96
2021/11/08 01:52:58;;;;;;;;;25.00;22.50;;;;;7.75;69.07;101987.97;4955851;28;45477;-96
2021/11/08 01:55:24;;;;;;;;;19.25;17.00;;;;;7.81;69.29;101990.13;4955031;28;45443;-96
2021/11/08 01:57:50;;;;;;;;;21.25;18.00;;;;;7.82;68.97;101991.97;4956169;28;46872;-96
2021/11/08 02:00:16;;;;;;;;;23.25;20.75;;;;;7.69;69.29;101974.41;4960160;28;45374;-96
2021/11/08 02:02:42;;;;;;;;;21.00;18.00;;;;;7.73;69.28;101976.47;4941646;28;45661;-96
2021/11/08 02:05:07;;;;;;;;;25.00;18.25;;;;;7.73;68.83;101978.19;4955573;28;45499;-96
2021/11/08 02:07:33;;;;;;;;;21.50;16.00;;;;;7.68;68.97;101972.63;4940707;28;47216;-96
2021/11/08 02:09:58;;;;;;;;;21.50;16.50;;;;;7.72;68.87;101982.50;4960765;28;46242;-96
2021/11/08 02:12:24;;;;;;;;;23.00;18.50;;;;;7.70;69.03;101978.88;4969788;28;45331;-96
2021/11/08 02:14:50;;;;;;;;;19.50;19.50;;;;;7.73;69.16;101986.91;4950188;28;45331;-96
2021/11/08 02:17:15;;;;;;;;;18.00;15.75;;;;;7.59;69.29;101968.50;4943854;28;47021;-96
2021/11/08 02:19:41;;;;;;;;;25.50;19.00;;;;;7.60;68.90;101972.91;4944963;28;54276;-96
2021/11/08 02:22:06;;;;;;;;;20.75;16.50;;;;;7.65;68.87;101981.13;4942044;28;45369;-96
2021/11/08 02:24:34;;;;;;;;;15.75;13.75;;;;;7.67;69.10;101996.91;4932330;28;45459;-96
2021/11/08 02:27:00;;;;;;;;;22.25;18.00;;;;;7.66;69.34;101982.94;4937694;28;48562;-96
2021/11/08 02:29:25;;;;;;;;;18.50;15.25;;;;;7.57;69.27;101966.56;4951019;28;45454;-96
2021/11/08 02:31:51;;;;;;;;;19.25;15.50;;;;;7.58;69.07;101969.28;4952507;28;45444;-96
2021/11/08 02:34:17;;;;;;;;;19.25;16.00;;;;;7.53;68.90;101967.09;4937363;28;45402;-96
2021/11/08 02:36:43;;;;;;;;;23.25;21.25;;;;;7.53;69.04;101962.78;4932999;28;47137;-96
2021/11/08 02:39:17;;;;;;;;;17.25;16.00;;;;;7.46;69.34;101964.00;4949999;28;45348;-96
2021/11/08 02:41:43;;;;;;;;;17.50;16.00;;;;;7.44;69.65;101965.59;4967310;28;45551;-96
2021/11/08 02:44:09;;;;;;;;;23.00;21.25;;;;;7.49;69.61;101966.88;4966483;28;45437;-96
2021/11/08 02:46:39;;;;;;;;;19.00;16.00;;;;;7.44;69.95;101956.84;4969608;28;47464;-96
2021/11/08 02:49:06;;;;;;;;;10.50;8.00;;;;;7.41;69.58;101952.28;4950742;28;45273;-96
2021/11/08 02:51:32;;;;;;;;;22.00;15.25;;;;;7.60;69.57;101990.31;4944030;28;47380;-96
2021/11/08 02:54:01;;;;;;;;;17.00;15.75;;;;;7.53;69.23;101977.53;4969495;28;45299;-96
2021/11/08 02:56:27;;;;;;;;;16.00;15.25;;;;;7.55;69.67;101984.69;4934887;28;47332;-96
2021/11/08 02:58:53;;;;;;;;;14.50;14.50;;;;;7.52;69.34;101978.34;4963425;28;45352;-95
2021/11/08 03:01:20;;;;;;;;;17.25;14.75;;;;;7.36;69.51;101956.25;4931386;28;45432;-96
2021/11/08 03:03:50;;;;;;;;;16.00;13.25;;;;;7.45;69.84;101976.94;4931457;28;45470;-96
2021/11/08 03:08:54;;;;;;;;;15.25;13.50;;;;;7.43;69.50;101986.38;4935035;28;45194;-96
2021/11/08 03:11:20;;;;;;;;;16.25;15.25;;;;;7.30;68.99;101969.72;4929202;28;45423;-96
2021/11/08 03:14:00;;;;;;;;;17.00;16.25;;;;;7.40;69.61;101994.88;4914311;28;44917;-96
2021/11/08 03:16:38;;;;;;;;;11.50;11.25;;;;;7.34;69.48;101987.50;4946635;28;45285;-96
2021/11/08 03:19:14;;;;;;;;;17.25;15.50;;;;;7.29;69.55;101983.59;4934814;28;45463;-96
2021/11/08 03:21:41;;;;;;;;;11.75;11.75;;;;;7.28;69.92;101980.84;4956305;28;45446;-96
2021/11/08 03:24:07;;;;;;;;;12.75;11.50;;;;;7.26;70.26;101971.22;4948211;28;45480;-96
2021/11/08 03:28:59;;;;;;;;;18.00;12.50;;;;;7.40;69.68;101994.88;4946369;28;45506;-96
2021/11/08 03:31:25;;;;;;;;;7.25;5.25;;;;;7.36;70.24;101993.72;4934893;28;45449;-96
2021/11/08 03:33:50;;;;;;;;;17.25;14.50;;;;;7.38;69.69;101999.06;4937832;28;45501;-96
2021/11/08 03:36:16;;;;;;;;;17.50;16.50;;;;;7.44;70.07;102010.00;4952653;28;47212;-96
2021/11/08 03:38:42;;;;;;;;;16.50;14.50;;;;;7.36;70.07;102001.56;4937328;28;46435;-96
2021/11/08 03:41:07;;;;;;;;;20.75;18.00;;;;;7.37;69.78;102000.75;4967218;28;45272;-96
2021/11/08 03:43:33;;;;;;;;;19.75;16.25;;;;;7.34;70.00;102000.53;4929125;28;45265;-95
2021/11/08 03:45:58;;;;;;;;;18.00;15.00;;;;;7.32;69.38;101996.88;4926958;28;47417;-96
2021/11/08 03:48:24;;;;;;;;;19.75;17.00;;;;;7.28;69.44;101989.59;4929428;28;45399;-96
2021/11/08 03:50:49;;;;;;;;;20.75;16.25;;;;;7.23;70.29;101989.25;4961448;28;45277;-96
2021/11/08 03:53:15;;;;;;;;;17.00;16.50;;;;;7.31;70.22;101988.94;4945205;28;57084;-96
2021/11/08 03:55:40;;;;;;;;;18.50;17.75;;;;;7.33;69.18;102006.53;4952752;28;47396;-96
2021/11/08 03:58:06;;;;;;;;;19.00;17.25;;;;;7.29;69.32;101994.03;4951293;28;45398;-96
2021/11/08 04:00:31;;;;;;;;;24.00;16.50;;;;;7.21;69.90;101971.63;4965039;28;45254;-96
2021/11/08 04:02:57;;;;;;;;;21.00;17.75;;;;;7.27;69.75;101982.53;4949036;28;45385;-96
2021/11/08 04:05:24;;;;;;;;;27.00;19.25;;;;;7.22;69.57;101978.66;4948926;28;47512;-96
2021/11/08 04:07:49;;;;;;;;;20.00;17.75;;;;;7.19;69.09;101968.88;4948536;28;45494;-96
2021/11/08 04:10:16;;;;;;;;;24.25;17.00;;;;;7.18;68.82;101980.13;4964641;28;45282;-96
2021/11/08 04:12:42;;;;;;;;;12.25;11.75;;;;;7.12;69.35;101979.63;4961547;28;45256;-96
2021/11/08 04:15:11;;;;;;;;;20.25;18.75;;;;;7.01;69.49;101955.31;4935801;28;47440;-96
2021/11/08 04:17:42;;;;;;;;;21.50;18.75;;;;;7.12;69.15;101984.84;4986461;28;44982;-96
2021/11/08 04:20:08;;;;;;;;;15.25;15.25;;;;;7.09;69.18;101984.59;4956549;28;44918;-96
2021/11/08 04:22:34;;;;;;;;;15.25;15.25;;;;;6.99;69.16;101981.25;4972488;28;44840;-96
2021/11/08 04:25:00;;;;;;;;;24.25;14.75;;;;;6.92;69.53;101985.09;4972868;28;47349;-96
2021/11/08 04:27:26;;;;;;;;;21.25;16.25;;;;;7.03;69.60;102003.31;4990484;28;45128;-96
2021/11/08 04:29:52;;;;;;;;;20.25;18.00;;;;;7.00;69.51;101992.63;4972821;28;45346;-96
2021/11/08 04:32:18;;;;;;;;;21.00;19.50;;;;;6.87;69.65;101978.59;4952788;28;45510;-96
2021/11/08 04:34:49;;;;;;;;;16.50;15.00;;;;;6.97;69.90;102006.34;4966138;28;48064;-96
2021/11/08 04:40:11;;;;;;;;;23.00;16.00;;;;;6.99;70.08;101998.63;4960935;28;45813;-96
2021/11/08 04:42:50;;;;;;;;;17.33;16.00;;;;;6.93;70.03;101986.00;4951035;28;45318;-96
2021/11/08 05:22:14;;;;;;;;;22.50;19.50;;;;;7.40;70.62;102015.78;4965037;28;45331;-96
2021/11/08 05:30:06;;;;;;;;;22.00;18.00;;;;;7.51;70.50;102010.47;4969151;28;45370;-96
2021/11/08 05:32:33;;;;;;;;;21.50;18.50;;;;;7.52;70.01;102010.63;4948624;28;45318;-96
2021/11/08 05:34:58;;;;;;;;;20.25;17.25;;;;;7.50;70.14;102012.16;4929187;28;45407;-96
2021/11/08 05:37:24;;;;;;;;;20.00;20.00;;;;;7.42;70.03;102003.72;4943955;28;47522;-96
2021/11/08 05:39:52;;;;;;;;;21.75;19.50;;;;;7.49;69.84;102013.91;4952087;28;45377;-96
2021/11/08 05:42:18;;;;;;;;;30.75;20.50;;;;;7.38;69.76;101997.38;4948886;28;45367;-96
2021/11/08 05:44:43;;;;;;;;;23.25;21.50;;;;;7.41;70.21;102003.63;4935450;28;45595;-96
2021/11/08 05:47:09;;;;;;;;;27.25;22.00;;;;;7.45;70.33;102010.91;4954849;28;48174;-96
2021/11/08 05:49:35;;;;;;;;;21.00;20.50;;;;;7.38;70.24;101997.38;4955686;28;45342;-96
2021/11/08 06:50:48;;;;;;;;;24.50;21.75;;;;;6.96;70.73;102074.09;4845754;29;45392;-96
2021/11/08 06:53:18;;;;;;;;;14.25;11.50;;;;;6.93;70.78;102064.31;4828224;29;47333;-96
2021/11/08 06:55:50;;;;;;;;;22.50;18.75;;;;;6.95;71.12;102057.53;4833892;29;45461;-96
2021/11/08 06:58:18;;;;;;;;;24.25;18.75;;;;;6.99;70.89;102067.41;4830433;29;45411;-96
2021/11/08 07:00:56;;;;;;;;;20.25;18.75;;;;;7.13;71.16;102072.88;4869439;29;45603;-96
2021/11/08 07:03:21;;;;;;;;;28.75;24.50;;;;;7.30;70.82;102095.09;4889111;29;47175;-96
2021/11/08 07:05:47;;;;;;;;;29.25;27.25;;;;;7.07;71.03;102052.38;4848763;29;45474;-96
2021/11/08 07:08:13;;;;;;;;;26.75;25.00;;;;;7.13;70.68;102067.63;4891571;29;45321;-96
2021/11/08 07:10:39;;;;;;;;;37.75;29.25;;;;;7.19;70.71;102062.00;4888997;29;45331;-96
2021/11/08 07:13:08;;;;;;;;;30.25;29.00;;;;;7.33;70.92;102089.22;4879539;29;47114;-96
2021/11/08 07:15:33;;;;;;;;;34.50;30.00;;;;;7.37;70.84;102088.69;4875911;29;45518;-96
2021/11/08 07:18:01;;;;;;;;;32.00;29.25;;;;;7.43;70.39;102094.41;4878042;29;46420;-96
2021/11/08 07:20:28;;;;;;;;;32.00;27.75;;;;;7.40;70.40;102083.69;4878368;29;45431;-96
2021/11/08 07:22:54;;;;;;;;;25.00;23.50;;;;;7.41;70.33;102079.38;4889379;23;47522;-96
2021/11/08 07:25:19;;;;;;;;;33.00;24.50;;;;;7.32;70.28;102079.56;4954701;28;45543;-96
2021/11/08 07:27:45;;;;;;;;;26.75;24.00;;;;;7.45;70.25;102104.97;4938020;28;45340;-84
2021/11/08 07:30:11;;;;;;;;;23.75;23.75;;;;;7.53;70.41;102106.50;4976379;28;45357;-85
2021/11/08 07:32:37;;;;;;;;;24.75;22.00;;;;;7.56;70.36;102121.50;4978761;28;46839;-85
2021/11/08 07:35:02;;;;;;;;;25.00;23.25;;;;;7.57;70.48;102120.72;4975639;28;73549;-84
2021/11/08 07:37:28;;;;;;;;;25.75;24.00;;;;;7.62;70.28;102121.09;4974314;28;45308;-83
2021/11/08 07:39:53;;;;;;;;;16.00;16.00;;;;;7.67;70.43;102123.28;4979801;28;64382;-83
2021/11/08 07:42:19;;;;;;;;;21.50;20.75;;;;;7.75;70.70;102129.13;4957861;28;67185;-84
2021/11/08 07:44:44;;;;;;;;;34.00;23.00;;;;;7.82;70.58;102131.44;4973523;28;45474;-83
2021/11/08 07:47:09;;;;;;;;;16.50;16.50;;;;;7.87;70.64;102128.25;4969567;28;47487;-84
2021/11/08 07:49:35;;;;;;;;;22.25;17.50;;;;;7.93;70.54;102131.38;4977656;28;45414;-83
2021/11/08 07:52:00;;;;;;;;;29.50;24.75;;;;;7.90;70.16;102124.19;4969159;28;46504;-84
2021/11/08 07:54:30;;;;;;;;;23.00;19.75;;;;;8.01;70.34;102131.97;4968616;28;59498;-85
2021/11/08 07:56:55;;;;;;;;;31.50;24.25;;;;;8.07;70.69;102132.44;4955013;28;45545;-84
2021/11/08 07:59:21;;;;;;;;;25.50;23.00;;;;;8.15;70.36;102133.94;4959369;28;47427;-84
2021/11/08 08:01:49;;;;;;;;;29.50;25.00;;;;;8.22;70.09;102137.06;4982865;28;46068;-85
2021/11/08 08:04:15;;;;;;;;;29.00;27.75;;;;;8.22;70.13;102134.44;4977207;28;45479;-85
2021/11/08 08:06:41;;;;;;;;;29.50;24.75;;;;;8.24;70.14;102132.84;4970714;28;45379;-85
2021/11/08 08:09:06;;;;;;;;;33.25;26.00;;;;;8.27;70.02;102123.50;4964011;28;45437;-83
2021/11/08 08:11:32;;;;;;;;;33.00;27.50;;;;;8.33;69.97;102130.00;4978164;28;45981;-83
2021/11/08 08:13:57;;;;;;;;;26.75;26.25;;;;;8.37;69.44;102134.72;4981356;28;45368;-84
2021/11/08 08:16:22;;;;;;;;;30.00;28.00;;;;;8.45;69.62;102133.56;4959855;28;45351;-83
2021/11/08 08:18:48;;;;;;;;;27.50;26.50;;;;;8.52;69.51;102144.50;4965158;28;45464;-83
2021/11/08 08:21:14;;;;;;;;;32.75;27.00;;;;;8.58;69.26;102145.91;4974596;28;46641;-83
2021/11/08 08:23:41;;;;;;;;;33.00;28.50;;;;;8.68;68.98;102150.19;4963408;28;45516;-83
2021/11/08 08:26:06;;;;;;;;;26.25;22.25;;;;;8.75;69.12;102141.06;4985140;28;45387;-84
2021/11/08 08:28:32;;;;;;;;;28.50;26.25;;;;;8.80;68.70;102144.03;4975081;28;50437;-84
2021/11/08 08:30:58;;;;;;;;;32.00;26.25;;;;;8.87;69.20;102142.78;4971881;28;45445;-85
2021/11/08 08:33:23;;;;;;;;;26.50;23.50;;;;;8.91;69.10;102145.75;4958271;28;45713;-85
2021/11/08 08:35:49;;;;;;;;;31.50;26.00;;;;;8.91;68.97;102144.84;4948409;28;45582;-85
2021/11/08 08:38:17;;;;;;;;;25.00;21.25;;;;;8.97;68.62;102142.66;4972574;28;59564;-84
2021/11/08 08:40:43;;;;;;;;;22.75;19.50;;;;;9.03;69.57;102143.13;4938855;28;46489;-85
2021/11/08 08:43:08;;;;;;;;;26.00;24.00;;;;;9.14;68.87;102143.03;4954646;28;45453;-85
2021/11/08 08:45:35;;;;;;;;;31.50;23.75;;;;;9.20;68.98;102153.06;4955814;28;45490;-85
2021/11/08 08:48:00;;;;;;;;;32.00;26.75;;;;;9.22;69.97;102148.81;4971760;28;45406;-85
2021/11/08 08:50:26;;;;;;;;;31.25;24.50;;;;;9.23;69.08;102153.25;4966822;28;45668;-85
2021/11/08 08:52:51;;;;;;;;;31.00;26.25;;;;;9.20;68.88;102153.94;4972721;28;45376;-84
2021/11/08 08:55:16;;;;;;;;;27.00;24.75;;;;;9.19;67.95;102156.44;4963207;28;69386;-84
2021/11/08 08:57:42;;;;;;;;;28.75;26.25;;;;;9.17;69.12;102153.72;4970754;28;45621;-87
2021/11/08 09:00:09;;;;;;;;;31.00;24.50;;;;;9.25;69.00;102164.78;4945519;28;48240;-85
2021/11/08 09:02:34;;;;;;;;;33.50;27.25;;;;;9.32;68.34;102158.28;4973228;28;45427;-85
2021/11/08 09:04:59;;;;;;;;;29.50;25.50;;;;;9.38;68.92;102151.75;4961431;28;45248;-84
2021/11/08 09:07:25;;;;;;;;;30.50;25.75;;;;;9.45;68.77;102154.84;4969850;28;57227;-85
2021/11/08 09:09:50;;;;;;;;;27.00;25.50;;;;;9.48;68.53;102160.31;4955754;28;75669;-85
2021/11/08 09:12:15;;;;;;;;;31.25;26.25;;;;;9.46;68.10;102154.03;4975686;28;61039;-84
2021/11/08 09:14:41;;;;;;;;;24.25;23.00;;;;;9.48;68.16;102155.06;4974885;28;66145;-84
2021/11/08 09:17:07;;;;;;;;;25.75;22.00;;;;;9.47;68.35;102156.78;4979153;28;52704;-84
2021/11/08 09:19:32;;;;;;;;;26.75;21.25;;;;;9.45;68.51;102153.13;4973929;28;45541;-84
2021/11/08 09:21:58;;;;;;;;;27.75;23.00;;;;;9.41;68.40;102145.81;4958236;28;45382;-84
2021/11/08 09:24:23;;;;;;;;;29.25;28.00;;;;;9.45;68.40;102160.09;4967915;28;59763;-86
2021/11/08 09:26:49;;;;;;;;;23.50;21.75;;;;;9.46;68.68;102165.44;4963717;28;45449;-86
2021/11/08 09:29:15;;;;;;;;;38.75;30.75;;;;;9.47;68.71;102155.84;4974609;28;46138;-87
2021/11/08 09:31:40;;;;;;;;;30.50;26.25;;;;;9.53;68.43;102165.88;4973387;28;46260;-85
2021/11/08 09:34:09;;;;;;;;;26.75;25.75;;;;;9.59;68.32;102156.75;4956324;28;64964;-85
2021/11/08 09:36:35;;;;;;;;;31.00;24.75;;;;;9.66;68.65;102162.44;4973854;28;45534;-84
2021/11/08 09:39:01;;;;;;;;;34.50;27.75;;;;;9.71;68.32;102163.69;4972304;28;45391;-85
2021/11/08 09:41:34;;;;;;;;;29.25;23.75;;;;;9.74;68.40;102158.63;4987631;28;45604;-85
2021/11/08 09:44:00;;;;;;;;;32.50;27.50;;;;;9.80;68.40;102158.16;4975878;28;45330;-85
2021/11/08 09:46:25;;;;;;;;;34.25;30.50;;;;;9.82;68.59;102160.09;4944666;28;47498;-85
2021/11/08 09:48:51;;;;;;;;;31.25;27.25;;;;;9.87;68.21;102155.19;4939691;28;64650;-85
2021/11/08 09:51:16;;;;;;;;;25.00;23.75;;;;;9.93;68.42;102158.25;4974028;28;45399;-85
2021/11/08 09:53:42;;;;;;;;;23.75;23.75;;;;;9.95;68.27;102145.22;4955900;28;46017;-85
2021/11/08 09:56:07;;;;;;;;;28.25;26.25;;;;;10.05;67.96;102149.44;4955084;28;45389;-84
2021/11/08 09:58:33;;;;;;;;;23.75;19.75;;;;;10.15;67.87;102153.63;4957088;28;47421;-84
2021/11/08 10:00:59;;;;;;;;;32.50;25.75;;;;;10.24;67.81;102161.19;4974614;28;45458;-85
2021/11/08 10:03:26;;;;;;;;;30.75;26.25;;;;;10.30;67.89;102153.78;4981883;28;45388;-84
2021/11/08 10:05:53;;;;;;;;;28.00;23.25;;;;;10.44;67.52;102145.91;4967802;28;45631;-84
2021/11/08 10:08:20;;;;;;;;;24.25;20.50;;;;;10.53;67.84;102138.72;4975951;28;46536;-85
2021/11/08 10:10:46;;;;;;;;;29.75;22.50;;;;;10.68;67.32;102148.44;4971114;28;45452;-85
2021/11/08 10:13:14;;;;;;;;;25.25;22.25;;;;;10.74;67.21;102143.59;4956278;28;45404;-85
2021/11/08 10:15:48;;;;;;;;;24.50;24.25;;;;;10.81;67.29;102142.28;4950684;28;45457;-85
2021/11/08 10:18:14;;;;;;;;;33.50;24.50;;;;;10.90;66.91;102140.28;4940972;28;46647;-85
2021/11/08 10:20:41;;;;;;;;;30.50;24.00;;;;;10.95;66.50;102145.84;4947480;28;46091;-85
2021/11/08 10:23:08;;;;;;;;;31.50;24.50;;;;;10.99;66.58;102142.59;4957082;28;45326;-85
2021/11/08 10:25:34;;;;;;;;;33.00;28.25;;;;;11.05;66.59;102137.78;4936203;28;45522;-85
2021/11/08 10:27:59;;;;;;;;;24.75;22.25;;;;;11.15;66.61;102139.28;4965831;28;53744;-85
2021/11/08 10:30:32;;;;;;;;;27.25;24.00;;;;;11.17;64.82;102142.00;4955423;28;56443;-85
2021/11/08 10:33:08;;;;;;;;;23.75;22.75;;;;;11.31;65.84;102139.38;4947741;28;53705;-85
2021/11/08 10:35:45;;;;;;;;;30.50;26.50;;;;;11.39;64.98;102140.78;4971765;28;45401;-85
2021/11/08 10:38:15;;;;;;;;;29.00;23.25;;;;;11.52;64.57;102142.44;4973229;28;45334;-85
2021/11/08 10:40:44;;;;;;;;;23.75;20.00;;;;;11.64;65.13;102144.06;4970670;28;45503;-84
2021/11/08 10:43:10;;;;;;;;;26.00;22.75;;;;;11.79;65.42;102145.03;4956432;28;45467;-85
2021/11/08 10:45:55;;;;;;;;;26.00;20.00;;;;;11.92;64.62;102132.66;4955824;28;47631;-85
2021/11/08 10:48:28;;;;;;;;;20.50;19.25;;;;;11.98;65.00;102130.41;4956055;28;45606;-85
2021/11/08 10:50:53;;;;;;;;;21.25;21.25;;;;;12.05;64.22;102134.31;4955396;28;45389;-84
2021/11/08 10:53:19;;;;;;;;;18.67;18.67;;;;;12.05;64.18;102129.06;4968289;28;45403;-84
2021/11/08 10:55:51;;;;;;;;;27.67;18.67;;;;;12.05;64.08;102127.34;4971379;28;45494;-85
2021/11/08 10:58:19;;;;;;;;;18.00;16.00;;;;;12.03;64.17;102126.34;4953046;28;46502;-85
2021/11/08 11:00:55;;;;;;;;;24.33;17.33;;;;;12.04;64.07;102129.84;4956592;28;45462;-85
2021/11/08 11:03:21;;;;;;;;;19.00;16.67;;;;;12.00;63.48;102118.25;4973652;28;45366;-84
2021/11/08 11:05:53;;;;;;;;;16.67;16.00;;;;;12.02;62.38;102120.97;4940958;28;45570;-85
2021/11/08 11:08:18;;;;;;;;;16.33;14.00;;;;;11.92;63.33;102123.03;4966957;28;46567;-85
2021/11/08 11:10:51;;;;;;;;;15.00;13.67;;;;;11.85;63.59;102119.09;4972073;28;63530;-85
2021/11/08 11:13:18;;;;;;;;;15.67;14.00;;;;;11.80;64.14;102119.66;4952037;28;45840;-85
2021/11/08 11:15:44;;;;;;;;;14.67;12.67;;;;;11.85;63.33;102131.38;4939792;28;45478;-84
2021/11/08 11:18:10;;;;;;;;;8.00;8.00;;;;;11.85;62.75;102136.63;4971961;28;46117;-84
2021/11/08 11:20:37;;;;;;;;;16.00;14.67;;;;;11.84;63.41;102126.91;4969040;28;45789;-84
2021/11/08 11:23:15;;;;;;;;;10.33;9.00;;;;;11.86;63.64;102122.63;4955331;28;45291;-84
2021/11/08 11:25:42;;;;;;;;;14.67;12.00;;;;;11.88;63.73;102120.13;4942252;28;45507;-84
2021/11/08 11:28:09;;;;;;;;;16.67;9.67;;;;;11.89;63.60;102122.84;4971523;28;45514;-84
2021/11/08 11:30:37;;;;;;;;;14.00;5.00;;;;;11.90;63.17;102124.66;4955008;28;45537;-84
2021/11/08 11:33:11;;;;;;;;;8.67;8.00;;;;;11.92;62.86;102123.03;4937354;28;45643;-84
2021/11/08 11:35:37;;;;;;;;;11.67;10.67;;;;;11.95;63.43;102122.31;4972722;28;45310;-84
2021/11/08 11:38:04;;;;;;;;;10.67;8.00;;;;;11.98;63.20;102109.34;4978564;28;45592;-83
2021/11/08 11:40:32;;;;;;;;;8.33;7.00;;;;;12.04;63.06;102103.53;4976835;28;45560;-85
2021/11/08 11:43:03;;;;;;;;;10.00;7.00;;;;;12.06;62.23;102104.56;4954275;28;50098;-83
2021/11/08 11:45:29;;;;;;;;;8.00;7.33;;;;;12.11;60.73;102097.81;4974731;28;45533;-83
2021/11/08 11:48:04;;;;;;;;;8.00;5.00;;;;;12.21;61.78;102104.63;4970808;28;46901;-84
2021/11/08 11:50:31;;;;;;;;;9.00;5.67;;;;;12.22;61.83;102089.72;4970485;28;45446;-83
2021/11/08 11:52:58;;;;;;;;;9.33;7.00;;;;;12.26;61.59;102087.38;4956681;28;45337;-84
2021/11/08 11:55:23;;;;;;;;;5.67;5.00;;;;;12.30;61.26;102093.72;4968048;28;45466;-84
2021/11/08 11:57:48;;;;;;;;;7.00;4.67;;;;;12.35;61.64;102091.34;4961572;28;72956;-85
2021/11/08 12:00:14;;;;;;;;;5.00;3.33;;;;;12.40;60.95;102095.16;4985758;28;45266;-84
2021/11/08 12:02:40;;;;;;;;;0.00;0.00;;;;;12.43;59.42;102086.53;4945213;28;45278;-84
2021/11/08 12:05:06;;;;;;;;;0.00;0.00;;;;;12.46;59.08;102087.66;4953282;28;45568;-83
2021/11/08 12:07:32;;;;;;;;;4.00;3.00;;;;;12.45;60.09;102079.63;4943632;28;45679;-83
2021/11/08 12:10:00;;;;;;;;;3.33;2.33;;;;;12.46;59.24;102071.84;4957028;28;45395;-84
2021/11/08 12:12:25;;;;;;;;;5.00;5.00;;;;;12.52;59.07;102081.84;4955698;28;45510;-85
2021/11/08 12:15:07;;;;;;;;;4.67;3.33;;;;;12.51;58.92;102067.75;4952960;28;45960;-84
2021/11/08 12:17:40;;;;;;;;;3.00;3.00;;;;;12.54;58.64;102069.66;4967051;28;56303;-87
2021/11/08 12:20:09;;;;;;;;;5.00;3.33;;;;;12.57;57.93;102069.84;4959879;28;45359;-87
2021/11/08 12:22:34;;;;;;;;;3.67;3.00;;;;;12.59;59.00;102067.28;4963622;28;45446;-86
2021/11/08 12:25:02;;;;;;;;;10.00;5.00;;;;;12.61;58.54;102063.94;4973031;28;45567;-84
2021/11/08 12:27:45;;;;;;;;;5.67;4.00;;;;;12.60;58.56;102066.50;4977978;28;46822;-83
2021/11/08 12:30:29;;;;;;;;;8.67;4.67;;;;;12.59;58.93;102059.41;4953010;28;45521;-84
2021/11/08 12:32:58;;;;;;;;;6.33;4.00;;;;;12.62;58.99;102062.22;4970459;28;46169;-84
2021/11/08 12:35:33;;;;;;;;;7.33;5.67;;;;;12.65;58.62;102054.50;4956811;28;45504;-85
2021/11/08 12:37:58;;;;;;;;;5.00;5.00;;;;;12.65;58.55;102043.03;4942482;28;45378;-87
2021/11/08 12:40:31;;;;;;;;;13.67;5.33;;;;;12.71;58.91;102052.19;4966160;28;67061;-85
2021/11/08 12:42:56;;;;;;;;;7.67;4.67;;;;;12.77;58.88;102040.19;4954432;28;45835;-86
2021/11/08 12:45:24;;;;;;;;;12.00;6.33;;;;;12.89;57.87;102039.97;4961316;28;45362;-86
2021/11/08 12:48:01;;;;;;;;;5.00;5.00;;;;;13.09;58.83;102049.00;4936925;28;47246;-86
2021/11/08 12:50:45;;;;;;;;;8.00;4.67;;;;;13.38;57.43;102041.81;4928327;28;49235;-87
2021/11/08 12:53:21;;;;;;;;;6.67;6.67;;;;;13.61;56.93;102030.72;4987477;28;45481;-85
2021/11/08 12:55:47;;;;;;;;;9.00;5.67;;;;;13.76;58.06;102019.19;4954878;28;45324;-86
2021/11/08 12:58:12;;;;;;;;;6.67;4.67;;;;;13.99;57.02;102024.75;4971466;28;46268;-87
2021/11/08 13:00:40;;;;;;;;;4.00;4.00;;;;;14.07;55.55;102037.50;4970996;28;67137;-85
2021/11/08 13:03:13;;;;;;;;;4.00;2.00;;;;;14.07;55.50;102034.00;4959192;28;45398;-85
2021/11/08 13:05:43;;;;;;;;;5.00;4.00;;;;;14.00;54.70;102026.56;4959899;28;45423;-88
2021/11/08 13:08:23;;;;;;;;;4.00;2.00;;;;;13.88;54.32;102035.66;4966099;28;45572;-86
2021/11/08 13:11:18;;;;;;;;;4.67;2.00;;;;;13.73;54.41;102028.75;4961214;28;45530;-85